Bryan, TX (77801)

7:48 PM CDT on August 30, 2016 (GMT -0500)
Woodland Hights | | Change Station

Elev 335 ft 30.65 °N, 96.36 °W | Updated 3 minutes ago

Overcast
Overcast
85.0 °F
Feels Like 94 °F
N
3.0
Wind Variable Wind from SSE
Gusts 4.0 mph

Today
High -- | Low -- °F
--% Chance of Precip.
Yesterday
High -- | Low -- °F
Precip. -- in
Pressure 29.90 in
Visibility 4.0 miles
Clouds Few 4600 ft
Scattered Clouds 5500 ft
Mostly Cloudy 7000 ft
Heat Index 94 °F
Dew Point 75 °F
Humidity 73%
Rainfall 0.00 in
Snow Depth Not available.
7:01 AM 7:50 PM
Waning Crescent, 2% visible
SPECI KCLL 310011Z 00000KT 4SM -RA FEW046 SCT055 BKN070 28/20 A2990 RMK AO2 WSHFT 2345 LTG DSNT SW TSE2359 P0005 T02780200
Pressure 29.90 in
Visibility 4.0 miles
Clouds Few 4600 ft
Scattered Clouds 5500 ft
Mostly Cloudy 7000 ft
Heat Index 94 °F
Dew Point 75 °F
Humidity 73%
Rainfall 0.00 in
Snow Depth Not available.
7:01 AM 7:50 PM
Waning Crescent, 2% visible
SPECI KCLL 310011Z 00000KT 4SM -RA FEW046 SCT055 BKN070 28/20 A2990 RMK AO2 WSHFT 2345 LTG DSNT SW TSE2359 P0005 T02780200

10-Day Weather Forecast

Almanac

Astronomy

Aug. 30, 2016 Rise Set
Actual Time
Civil Twilight
Nautical Twilight
Astronomical Twilight
Moon
Length of Visible Light
Length of Day
Tomorrow will be .
, % of the Moon is Illuminated

Today's Extremes

State Highs State Lows

Community

WunderPhotos

Upload Photos

1,935,964 photos uploaded!

WunderBlog® & News

Nearby

Air Quality

  Air Quality AQ Index Pollutant
Not available.

Snow Depth

Station Depth Elevation

Earthquake Activity

City Distance Mag. Time & Date
Minimum magnitude displayed is 2.5.

Coastal Water Temperatures

Place Temperature

Stations

Nearby Weather Stations

Station Location Temp. Windchill Dew Point Humidity Wind Precip. Elev Updated Type
                   

Watches & Warnings

There are currently no watches in effect.